Time;durP1;ratioP1;P1;durP2;ratioP2;P2;SDS_P1;SDS_P2;PMS_P1;PMS_P2;Temp;Humidity;BMP_temperature;BMP_pressure;BME280_temperature;BME280_humidity;BME280_pressure;Samples;Min_cycle;Max_cycle;Signal;HPM_P1;HPM_P2
2024/01/24 00:02:22;;;;;;;3.47;1.13;;;;;;;8.88;99.29;97919.56;5116759;28;20201;-59
2024/01/24 00:04:50;;;;;;;3.83;1.57;;;;;;;8.88;100.00;97911.63;5119063;28;20272;-60
2024/01/24 00:07:17;;;;;;;1.90;1.27;;;;;;;8.90;98.74;97920.28;5122544;28;20288;-60
2024/01/24 00:09:43;;;;;;;1.63;1.20;;;;;;;8.92;100.00;97928.97;5125432;28;20653;-61
2024/01/24 00:12:10;;;;;;;2.07;0.97;;;;;;;8.87;100.00;97920.50;5114901;28;20205;-60
2024/01/24 00:14:37;;;;;;;3.83;1.30;;;;;;;8.90;100.00;97920.28;5112105;28;20561;-61
2024/01/24 00:17:05;;;;;;;3.40;1.27;;;;;;;8.91;100.00;97921.97;5110828;27;20201;-61
2024/01/24 00:19:31;;;;;;;1.40;1.10;;;;;;;8.95;98.82;97922.63;5111796;28;20237;-61
2024/01/24 00:21:59;;;;;;;2.63;0.97;;;;;;;8.96;96.83;97924.31;5110537;28;20200;-61
2024/01/24 00:24:26;;;;;;;1.70;1.27;;;;;;;9.01;97.28;97927.50;5111414;28;20205;-61
2024/01/24 00:26:52;;;;;;;2.30;1.40;;;;;;;9.09;94.78;97919.91;5110803;28;20287;-61
2024/01/24 00:29:19;;;;;;;2.47;1.47;;;;;;;9.13;94.38;97918.75;5111785;28;20506;-62
2024/01/24 00:31:47;;;;;;;1.87;1.33;;;;;;;9.19;92.11;97920.13;5110666;28;20201;-62
2024/01/24 00:34:14;;;;;;;2.83;1.00;;;;;;;9.24;92.24;97923.31;5111056;28;20208;-61
2024/01/24 00:36:40;;;;;;;2.50;1.13;;;;;;;9.25;92.89;97914.44;5111377;28;20216;-61
2024/01/24 00:39:09;;;;;;;1.50;1.10;;;;;;;9.26;91.48;97913.50;5111800;28;20207;-60
2024/01/24 00:41:36;;;;;;;3.77;1.73;;;;;;;9.31;92.29;97914.03;5113123;28;20258;-60
2024/01/24 00:44:02;;;;;;;3.27;1.30;;;;;;;9.34;91.75;97913.81;5115877;28;20223;-61
2024/01/24 00:46:29;;;;;;;4.50;1.63;;;;;;;9.33;95.19;97907.69;5115143;27;20220;-61
2024/01/24 00:48:55;;;;;;;2.53;1.27;;;;;;;9.34;92.52;97903.25;5115593;28;20264;-61
2024/01/24 00:51:22;;;;;;;2.60;1.10;;;;;;;9.47;88.43;97898.81;5115134;28;20223;-61
2024/01/24 00:53:51;;;;;;;2.60;1.00;;;;;;;9.55;87.49;97896.50;5117448;28;20284;-60
2024/01/24 00:56:19;;;;;;;2.03;1.30;;;;;;;9.63;86.66;97891.53;5114531;27;20208;-61
2024/01/24 00:58:45;;;;;;;2.77;1.17;;;;;;;9.61;88.21;97888.16;5114881;28;20228;-60
2024/01/24 01:01:12;;;;;;;2.30;1.10;;;;;;;9.58;88.82;97880.44;5114379;28;20219;-61
2024/01/24 01:03:39;;;;;;;2.70;1.27;;;;;;;9.58;89.18;97884.88;5115141;28;20197;-61
2024/01/24 01:06:06;;;;;;;2.17;1.30;;;;;;;9.53;89.19;97869.34;5114053;28;20227;-61
2024/01/24 01:08:32;;;;;;;1.13;1.00;;;;;;;9.52;90.16;97859.75;5115157;28;20296;-60
2024/01/24 01:11:00;;;;;;;2.07;1.20;;;;;;;9.52;90.44;97843.91;5114466;28;20201;-60
2024/01/24 01:13:27;;;;;;;4.47;2.10;;;;;;;9.56;89.38;97849.81;5114503;28;20202;-60
2024/01/24 01:15:54;;;;;;;2.50;1.50;;;;;;;9.62;88.79;97844.94;5114201;28;20200;-61
2024/01/24 01:18:21;;;;;;;2.03;0.93;;;;;;;9.58;88.96;97858.47;5115021;28;20199;-61
2024/01/24 01:20:47;;;;;;;1.93;0.90;;;;;;;9.50;89.65;97862.50;5113891;28;20644;-61
2024/01/24 01:23:14;;;;;;;1.83;1.10;;;;;;;9.56;89.29;97870.94;5114165;28;20646;-60
2024/01/24 01:25:40;;;;;;;2.87;1.37;;;;;;;9.53;90.53;97885.19;5114700;27;20221;-61
2024/01/24 01:28:07;;;;;;;0.97;0.90;;;;;;;9.53;90.47;97874.63;5114616;28;20197;-60
2024/01/24 01:30:35;;;;;;;3.07;1.07;;;;;;;9.56;90.27;97871.78;5114101;28;20235;-61
2024/01/24 01:33:01;;;;;;;2.90;1.30;;;;;;;9.55;90.20;97864.81;5114420;28;20327;-60
2024/01/24 01:35:28;;;;;;;1.97;1.13;;;;;;;9.53;90.49;97866.69;5114674;27;20281;-63
2024/01/24 01:37:54;;;;;;;2.33;1.30;;;;;;;9.54;90.95;97842.00;5114035;28;20240;-62
2024/01/24 01:40:21;;;;;;;3.37;1.53;;;;;;;9.57;90.87;97854.97;5114358;28;20219;-61
2024/01/24 01:42:48;;;;;;;1.97;1.10;;;;;;;9.60;90.36;97860.03;5114120;28;20209;-61
2024/01/24 01:45:14;;;;;;;2.57;1.00;;;;;;;9.57;90.47;97859.41;5113546;27;20239;-61
2024/01/24 01:47:43;;;;;;;3.77;1.43;;;;;;;9.56;91.22;97858.59;5114510;27;20212;-60
2024/01/24 01:50:11;;;;;;;2.37;1.23;;;;;;;9.58;91.69;97858.47;5113751;28;20292;-62
2024/01/24 01:52:38;;;;;;;3.13;1.33;;;;;;;9.51;92.46;97858.06;5113739;27;20201;-62
2024/01/24 01:55:05;;;;;;;3.20;1.40;;;;;;;9.49;92.92;97844.94;5113592;27;20212;-61
2024/01/24 01:57:33;;;;;;;4.70;1.37;;;;;;;9.39;92.25;97829.84;5113535;27;20194;-60
2024/01/24 02:00:00;;;;;;;1.90;1.23;;;;;;;9.45;92.43;97826.81;5113365;28;20228;-61
2024/01/24 02:02:27;;;;;;;2.87;1.10;;;;;;;9.41;93.09;97826.19;5113421;28;20216;-60
2024/01/24 02:04:55;;;;;;;2.43;1.10;;;;;;;9.50;92.19;97837.88;5114067;28;20220;-62
2024/01/24 02:07:22;;;;;;;1.30;1.03;;;;;;;9.47;91.40;97836.31;5113369;27;20229;-62
2024/01/24 02:09:49;;;;;;;1.90;1.03;;;;;;;9.46;91.66;97833.75;5113941;28;20314;-62
2024/01/24 02:12:15;;;;;;;3.93;1.20;;;;;;;9.51;91.26;97834.28;5114997;28;20285;-61
2024/01/24 02:14:42;;;;;;;2.57;1.30;;;;;;;9.47;91.58;97835.44;5118161;28;20273;-62
2024/01/24 02:17:08;;;;;;;1.73;1.40;;;;;;;9.36;93.04;97822.16;5120905;28;20587;-62
2024/01/24 02:19:35;;;;;;;2.73;1.03;;;;;;;9.39;92.44;97846.53;5116857;28;20537;-61
2024/01/24 02:22:03;;;;;;;1.27;0.93;;;;;;;9.32;93.86;97849.72;5113156;27;20205;-61
2024/01/24 02:24:31;;;;;;;1.30;1.20;;;;;;;9.31;92.21;97846.25;5114315;27;20528;-61
2024/01/24 02:26:58;;;;;;;3.33;0.90;;;;;;;9.32;93.97;97825.94;5113195;28;20229;-61
2024/01/24 02:29:24;;;;;;;2.33;1.10;;;;;;;9.36;94.45;97806.31;5113491;28;20205;-60
2024/01/24 02:31:51;;;;;;;2.73;1.13;;;;;;;9.34;92.60;97797.66;5112771;28;20196;-61
2024/01/24 02:34:17;;;;;;;1.30;1.00;;;;;;;9.35;90.70;97783.53;5113667;28;20203;-61
2024/01/24 02:36:44;;;;;;;1.60;0.80;;;;;;;9.45;88.65;97785.41;5112943;28;20626;-61
2024/01/24 02:39:11;;;;;;;2.03;1.17;;;;;;;9.46;89.09;97773.88;5113254;28;20280;-61
2024/01/24 02:41:41;;;;;;;1.47;0.90;;;;;;;9.43;90.88;97771.44;5112732;28;20201;-61
2024/01/24 02:44:07;;;;;;;2.53;0.80;;;;;;;9.46;91.21;97770.38;5113735;28;20293;-61
2024/01/24 02:46:34;;;;;;;1.13;0.90;;;;;;;9.46;91.30;97765.94;5112791;28;20231;-61
2024/01/24 02:49:00;;;;;;;1.03;0.77;;;;;;;9.41;92.12;97775.16;5113263;28;20288;-61
2024/01/24 02:51:27;;;;;;;3.03;0.80;;;;;;;9.55;87.38;97771.53;5112057;28;20288;-62
2024/01/24 02:53:54;;;;;;;0.50;0.50;;;;;;;9.63;85.35;97761.28;5113016;28;20207;-61
2024/01/24 02:56:20;;;;;;;3.17;2.87;;;;;;;9.69;86.00;97772.25;5112408;28;20311;-61
2024/01/24 02:58:50;;;;;;;1.37;1.17;;;;;;;9.75;85.93;97739.25;5112562;28;20239;-61
2024/01/24 03:01:16;;;;;;;1.60;0.77;;;;;;;9.83;84.57;97753.59;5110959;27;20610;-61
2024/01/24 03:03:43;;;;;;;1.77;0.70;;;;;;;10.11;82.78;97754.22;5112790;28;20201;-61
2024/01/24 03:06:10;;;;;;;1.00;0.90;;;;;;;10.14;83.21;97759.28;5115012;28;20277;-61
2024/01/24 03:08:47;;;;;;;1.23;1.00;;;;;;;10.10;84.05;97771.03;5116676;28;20189;-62
2024/01/24 03:11:14;;;;;;;1.17;0.73;;;;;;;10.38;80.83;97781.31;5112301;28;20215;-61
2024/01/24 03:13:40;;;;;;;1.47;0.87;;;;;;;10.46;80.57;97782.41;5112902;28;20207;-60
2024/01/24 03:16:09;;;;;;;3.63;1.10;;;;;;;10.59;78.69;97763.84;5112599;28;20204;-59
2024/01/24 03:18:36;;;;;;;1.53;0.70;;;;;;;10.52;79.48;97757.31;5112184;27;20205;-61
2024/01/24 03:21:03;;;;;;;1.47;0.77;;;;;;;10.59;79.07;97763.84;5111926;28;20626;-61
2024/01/24 03:23:30;;;;;;;0.60;0.60;;;;;;;10.55;80.10;97775.59;5111829;28;20236;-62
2024/01/24 03:25:56;;;;;;;1.57;0.97;;;;;;;10.59;79.84;97771.78;5111780;28;20285;-61
2024/01/24 03:28:23;;;;;;;0.80;0.80;;;;;;;10.59;80.10;97778.84;5111987;28;20216;-61
2024/01/24 03:30:49;;;;;;;1.13;0.50;;;;;;;10.59;80.07;97755.06;5111552;28;20576;-61
2024/01/24 03:33:17;;;;;;;1.50;0.70;;;;;;;10.58;81.24;97754.22;5112087;28;20598;-62
2024/01/24 03:35:44;;;;;;;1.37;0.70;;;;;;;10.74;80.27;97756.50;5112361;28;20280;-61
2024/01/24 03:38:10;;;;;;;2.37;0.77;;;;;;;10.78;80.46;97750.88;5111526;27;20209;-61
2024/01/24 03:40:37;;;;;;;0.57;0.40;;;;;;;10.71;82.04;97747.00;5111533;28;20299;-61
2024/01/24 03:43:03;;;;;;;0.87;0.63;;;;;;;10.69;82.88;97740.16;5111154;28;20934;-61
2024/01/24 03:45:30;;;;;;;0.70;0.70;;;;;;;10.65;83.54;97758.06;5111667;28;20581;-61
2024/01/24 03:47:56;;;;;;;1.30;0.70;;;;;;;10.65;83.61;97760.72;5111912;28;20209;-61
2024/01/24 03:50:24;;;;;;;1.27;0.70;;;;;;;10.68;83.75;97762.28;5111770;28;20201;-62
2024/01/24 03:52:50;;;;;;;1.20;0.77;;;;;;;10.69;84.53;97762.19;5111815;27;20251;-61
2024/01/24 03:55:17;;;;;;;2.00;0.70;;;;;;;10.70;84.79;97779.72;5111798;28;20353;-61
2024/01/24 03:57:44;;;;;;;1.57;0.60;;;;;;;10.68;85.25;97772.84;5111565;28;20292;-61
2024/01/24 04:00:12;;;;;;;3.73;0.60;;;;;;;10.68;85.41;97779.00;5111031;28;20560;-62
2024/01/24 04:02:38;;;;;;;1.10;0.70;;;;;;;10.75;86.12;97780.22;5111846;28;20205;-61
2024/01/24 04:05:06;;;;;;;0.70;0.60;;;;;;;10.81;85.76;97786.84;5111502;28;20464;-61
2024/01/24 04:07:34;;;;;;;0.77;0.53;;;;;;;10.97;85.70;97790.03;5110950;28;20221;-62
2024/01/24 04:10:01;;;;;;;1.03;0.60;;;;;;;10.98;85.54;97781.13;5111277;28;20215;-61
2024/01/24 04:12:28;;;;;;;0.97;0.80;;;;;;;11.02;85.67;97776.44;5111193;28;20197;-61
2024/01/24 04:14:54;;;;;;;2.30;1.60;;;;;;;11.07;86.23;97772.47;5111456;28;20206;-63
2024/01/24 04:17:21;;;;;;;0.93;0.70;;;;;;;11.09;86.82;97781.13;5109980;28;20197;-61
2024/01/24 04:19:48;;;;;;;1.30;0.67;;;;;;;11.34;85.89;97793.28;5111459;28;20203;-60
2024/01/24 04:22:15;;;;;;;0.47;0.40;;;;;;;11.34;86.24;97785.34;5111254;28;20223;-61
2024/01/24 04:24:44;;;;;;;1.10;0.70;;;;;;;11.40;85.40;97801.63;5112070;28;20232;-62
2024/01/24 04:27:10;;;;;;;1.40;0.70;;;;;;;11.41;85.56;97810.38;5114725;28;20224;-62
2024/01/24 04:29:37;;;;;;;0.43;0.43;;;;;;;11.58;85.42;97812.59;5116999;28;20193;-62
2024/01/24 04:32:04;;;;;;;1.30;0.63;;;;;;;11.58;85.07;97827.63;5113788;28;20533;-62
2024/01/24 04:34:31;;;;;;;1.10;0.60;;;;;;;11.62;85.12;97834.38;5111884;28;20223;-60
2024/01/24 04:36:57;;;;;;;1.93;0.77;;;;;;;11.65;84.86;97828.84;5113374;28;20201;-62
2024/01/24 04:39:24;;;;;;;2.07;1.30;;;;;;;11.64;84.44;97817.41;5114142;28;20292;-62
2024/01/24 04:41:52;;;;;;;1.60;0.70;;;;;;;11.67;84.36;97826.91;5111138;28;20657;-61
2024/01/24 04:44:18;;;;;;;0.70;0.50;;;;;;;11.75;84.33;97812.13;5111332;28;20209;-61
2024/01/24 04:46:45;;;;;;;1.30;1.03;;;;;;;11.66;85.38;97815.44;5110174;28;20611;-61
2024/01/24 04:49:12;;;;;;;0.57;0.50;;;;;;;11.73;85.18;97816.69;5111130;28;20197;-62
2024/01/24 04:51:38;;;;;;;0.77;0.50;;;;;;;11.62;86.65;97805.25;5110783;28;20211;-61
2024/01/24 04:54:05;;;;;;;0.90;0.80;;;;;;;11.63;87.06;97813.06;5110825;28;20212;-61
2024/01/24 04:56:33;;;;;;;1.07;0.50;;;;;;;11.59;87.21;97808.94;5111237;28;20189;-61
2024/01/24 04:59:03;;;;;;;1.00;0.60;;;;;;;11.58;88.16;97801.16;5110805;28;20232;-62
2024/01/24 05:01:30;;;;;;;2.20;0.77;;;;;;;11.63;90.21;97820.16;5112335;28;20205;-61
2024/01/24 05:03:56;;;;;;;1.90;0.77;;;;;;;11.69;91.14;97803.78;5111760;28;20303;-60
2024/01/24 05:06:23;;;;;;;2.03;0.60;;;;;;;11.62;92.82;97798.09;5110188;28;20234;-61
2024/01/24 05:08:51;;;;;;;0.83;0.60;;;;;;;11.67;92.40;97789.81;5110622;28;20198;-61
2024/01/24 05:11:17;;;;;;;1.50;0.70;;;;;;;11.71;93.97;97797.44;5111452;28;20299;-61
2024/01/24 05:13:44;;;;;;;0.93;0.67;;;;;;;11.72;94.13;97804.44;5111267;28;20193;-62
2024/01/24 05:16:12;;;;;;;0.70;0.60;;;;;;;11.75;94.88;97808.63;5110248;28;20205;-61
2024/01/24 05:18:39;;;;;;;1.67;0.80;;;;;;;11.74;96.05;97807.78;5119455;28;20215;-62
2024/01/24 05:21:06;;;;;;;1.83;0.60;;;;;;;11.72;97.99;97812.38;5110402;28;20205;-61
2024/01/24 05:23:33;;;;;;;0.90;0.63;;;;;;;11.74;98.36;97809.59;5110476;28;20205;-61
2024/01/24 05:25:59;;;;;;;1.00;0.40;;;;;;;11.78;99.41;97806.56;5110054;28;20653;-61
2024/01/24 05:28:26;;;;;;;3.05;1.50;;;;;;;11.81;99.71;97813.44;5113132;28;20755;-60
2024/01/24 05:30:52;;;;;;;2.23;1.57;;;;;;;11.82;100.00;97815.13;5113831;28;20290;-61
2024/01/24 05:33:20;;;;;;;1.17;0.60;;;;;;;11.94;100.00;97820.28;5114313;27;20284;-60
2024/01/24 05:35:47;;;;;;;0.60;0.30;;;;;;;12.04;100.00;97815.09;5114831;28;20197;-60
2024/01/24 05:38:14;;;;;;;0.90;0.40;;;;;;;12.10;100.00;97819.06;5114069;27;20218;-60
2024/01/24 05:40:40;;;;;;;1.00;0.70;;;;;;;12.08;100.00;97821.81;5114431;28;20567;-60
2024/01/24 05:43:07;;;;;;;0.97;0.60;;;;;;;12.10;99.79;97819.91;5114366;27;20219;-61
2024/01/24 05:45:34;;;;;;;0.97;0.50;;;;;;;12.05;99.24;97827.38;5114322;28;20201;-61
2024/01/24 05:48:00;;;;;;;1.17;0.43;;;;;;;12.02;98.93;97826.78;5114049;28;20217;-60
2024/01/24 05:50:28;;;;;;;0.40;0.40;;;;;;;12.03;98.92;97828.47;5114302;28;20296;-60
2024/01/24 05:52:55;;;;;;;1.45;0.50;;;;;;;12.01;100.00;97833.88;5113779;27;20205;-60
2024/01/24 05:55:21;;;;;;;0.50;0.40;;;;;;;12.08;100.00;97850.16;5113943;28;20260;-60
2024/01/24 05:57:48;;;;;;;2.10;0.87;;;;;;;12.11;100.00;97844.63;5113498;27;20312;-61
2024/01/24 06:00:15;;;;;;;0.83;0.30;;;;;;;12.15;100.00;97859.31;5113092;28;20324;-60
2024/01/24 06:02:43;;;;;;;0.43;0.43;;;;;;;12.28;100.00;97854.69;5112649;27;20205;-61
2024/01/24 06:05:10;;;;;;;1.40;0.52;;;;;;;12.28;100.00;97860.84;5113898;28;20204;-62
2024/01/24 06:07:38;;;;;;;2.15;0.50;;;;;;;12.28;100.00;97858.19;5114459;27;20315;-60
2024/01/24 06:10:06;;;;;;;1.02;0.50;;;;;;;12.36;100.00;97855.75;5113555;28;20208;-61
2024/01/24 06:12:33;;;;;;;0.60;0.50;;;;;;;12.44;100.00;97858.63;5113057;28;20273;-61
2024/01/24 06:15:00;;;;;;;0.73;0.30;;;;;;;12.56;100.00;97838.22;5113642;28;20776;-60
2024/01/24 06:17:26;;;;;;;0.65;0.47;;;;;;;12.75;100.00;97834.91;5112841;28;20201;-61
2024/01/24 06:19:53;;;;;;;0.50;0.40;;;;;;;12.81;100.00;97829.91;5113888;28;20193;-62
2024/01/24 06:22:19;;;;;;;0.43;0.40;;;;;;;12.95;100.00;97850.00;5113029;28;20215;-60
2024/01/24 06:24:48;;;;;;;1.50;0.60;;;;;;;12.88;100.00;97838.19;5113284;28;20201;-60
2024/01/24 06:27:14;;;;;;;0.40;0.40;;;;;;;12.86;100.00;97866.69;5113490;27;20312;-68
2024/01/24 06:29:41;;;;;;;34.20;9.82;;;;;;;13.10;100.00;97869.16;5112364;28;20207;-60
2024/01/24 06:32:07;;;;;;;6.13;2.05;;;;;;;13.12;100.00;97862.72;5112004;28;20212;-59
2024/01/24 06:34:34;;;;;;;0.98;0.50;;;;;;;13.24;100.00;97869.69;5112843;27;20208;-62
2024/01/24 06:37:01;;;;;;;1.25;0.52;;;;;;;13.11;100.00;97862.88;5114386;28;20277;-64
2024/01/24 06:39:27;;;;;;;0.82;0.40;;;;;;;13.25;99.74;97863.38;5121604;28;20232;-61
2024/01/24 06:41:55;;;;;;;1.15;0.40;;;;;;;13.20;99.40;97848.81;5121783;28;20280;-61
2024/01/24 06:44:22;;;;;;;1.15;0.80;;;;;;;13.25;99.69;97862.56;5113088;28;20203;-61
2024/01/24 06:46:48;;;;;;;5.85;4.63;;;;;;;13.11;100.00;97855.72;5111997;28;20217;-60
2024/01/24 06:49:15;;;;;;;1.48;0.82;;;;;;;13.08;100.00;97861.25;5112798;28;20207;-61
2024/01/24 06:51:42;;;;;;;0.90;0.40;;;;;;;13.03;100.00;97876.75;5112678;28;20290;-61
2024/01/24 06:54:08;;;;;;;1.38;0.93;;;;;;;13.05;100.00;97861.53;5112840;28;20193;-61
2024/01/24 06:56:35;;;;;;;2.42;1.02;;;;;;;12.88;100.00;97881.53;5112170;28;20211;-60
2024/01/24 06:59:03;;;;;;;1.02;0.50;;;;;;;12.97;100.00;97880.75;5112549;28;20256;-61
2024/01/24 07:01:30;;;;;;;3.53;0.65;;;;;;;12.93;100.00;97868.69;5112261;28;20242;-61
2024/01/24 07:03:56;;;;;;;1.55;0.52;;;;;;;12.97;100.00;97878.09;5112134;28;20419;-61
2024/01/24 07:06:23;;;;;;;1.10;0.55;;;;;;;12.98;100.00;97870.97;5112279;28;20288;-61
2024/01/24 07:08:49;;;;;;;0.90;0.60;;;;;;;13.06;100.00;97863.22;5112372;28;20217;-61
2024/01/24 07:11:17;;;;;;;0.40;0.30;;;;;;;13.02;100.00;97852.97;5112301;28;20300;-61
2024/01/24 07:13:44;;;;;;;0.82;0.63;;;;;;;13.12;100.00;97860.06;5112401;28;20288;-60
2024/01/24 07:16:12;;;;;;;1.35;0.60;;;;;;;13.09;99.83;97847.06;5112690;28;20589;-61
2024/01/24 07:18:38;;;;;;;1.38;0.60;;;;;;;13.09;99.93;97852.38;5112415;28;20280;-61
2024/01/24 07:21:06;;;;;;;2.50;0.80;;;;;;;13.04;100.00;97854.53;5111995;28;20205;-60
2024/01/24 07:23:33;;;;;;;1.43;0.63;;;;;;;13.10;100.00;97856.72;5112548;28;20201;-60
2024/01/24 07:25:59;;;;;;;0.50;0.40;;;;;;;12.97;100.00;97866.63;5111983;28;20205;-60
2024/01/24 07:28:29;;;;;;;1.67;0.95;;;;;;;12.95;100.00;97861.47;5112432;28;20228;-60
2024/01/24 07:30:55;;;;;;;2.97;0.98;;;;;;;12.91;100.00;97865.34;5111961;28;20211;-60
2024/01/24 07:33:23;;;;;;;0.75;0.32;;;;;;;13.01;100.00;97859.25;5112275;28;20205;-60
2024/01/24 07:35:50;;;;;;;2.63;0.52;;;;;;;12.93;100.00;97854.59;5112221;28;20229;-60
2024/01/24 07:38:18;;;;;;;0.73;0.43;;;;;;;13.01;100.00;97856.59;5111023;28;20206;-60
2024/01/24 07:40:45;;;;;;;2.05;0.50;;;;;;;12.95;100.00;97855.31;5111718;28;20197;-61
2024/01/24 07:43:11;;;;;;;2.60;0.88;;;;;;;12.88;100.00;97859.44;5111650;28;20205;-61
2024/01/24 07:45:38;;;;;;;0.40;0.30;;;;;;;12.91;100.00;97873.31;5111401;28;20209;-60
2024/01/24 07:48:05;;;;;;;2.30;0.65;;;;;;;12.86;100.00;97872.84;5111799;28;20221;-60
2024/01/24 07:50:33;;;;;;;0.40;0.40;;;;;;;12.89;100.00;97882.38;5111410;28;20299;-61
2024/01/24 07:53:00;;;;;;;0.40;0.40;;;;;;;12.97;100.00;97886.06;5111149;28;20209;-60
2024/01/24 07:55:26;;;;;;;1.02;0.60;;;;;;;12.95;100.00;97888.03;5111377;28;20197;-60
2024/01/24 07:57:53;;;;;;;1.42;0.50;;;;;;;12.89;100.00;97887.69;5111380;28;20205;-61
2024/01/24 08:00:20;;;;;;;0.95;0.65;;;;;;;12.96;100.00;97894.19;5110790;28;20260;-60
2024/01/24 08:02:48;;;;;;;0.70;0.68;;;;;;;13.03;100.00;97902.47;5110815;28;20201;-60
2024/01/24 08:05:15;;;;;;;1.73;0.85;;;;;;;13.06;100.00;97904.88;5111405;28;20324;-60
2024/01/24 08:07:52;;;;;;;2.70;0.93;;;;;;;12.97;100.00;97901.16;5111323;28;20221;-60
2024/01/24 08:10:19;;;;;;;1.17;0.90;;;;;;;12.91;100.00;97906.97;5111752;28;20200;-61
2024/01/24 08:12:45;;;;;;;1.58;0.80;;;;;;;12.91;100.00;97899.84;5111403;28;20292;-61
2024/01/24 08:15:12;;;;;;;1.20;0.60;;;;;;;13.05;99.03;97916.44;5111373;28;20288;-59
2024/01/24 08:17:39;;;;;;;2.97;0.65;;;;;;;13.05;99.51;97913.78;5111636;28;20201;-61
2024/01/24 08:20:08;;;;;;;0.57;0.47;;;;;;;13.03;99.39;97910.44;5110896;28;20197;-60
2024/01/24 08:22:35;;;;;;;1.90;1.08;;;;;;;13.00;99.75;97900.06;5110868;28;20259;-61
2024/01/24 08:25:04;;;;;;;1.60;0.80;;;;;;;13.03;98.63;97899.81;5111357;28;20205;-61
2024/01/24 08:27:31;;;;;;;1.70;0.90;;;;;;;13.02;99.08;97896.31;5110887;28;20235;-61
2024/01/24 08:29:59;;;;;;;1.15;0.73;;;;;;;12.93;99.93;97895.25;5111698;28;20207;-61
2024/01/24 08:32:26;;;;;;;1.92;0.57;;;;;;;12.97;99.61;97895.84;5110319;28;21255;-61
2024/01/24 08:34:52;;;;;;;0.85;0.60;;;;;;;12.95;99.40;97903.09;5110990;28;20215;-61
2024/01/24 08:37:19;;;;;;;0.98;0.63;;;;;;;13.07;99.00;97909.22;5110769;28;20224;-60
2024/01/24 08:39:45;;;;;;;0.65;0.65;;;;;;;13.12;97.75;97915.00;5110898;28;20227;-60
2024/01/24 08:42:13;;;;;;;1.77;0.63;;;;;;;12.96;98.86;97887.06;5111561;28;20200;-61
2024/01/24 08:44:40;;;;;;;1.15;0.90;;;;;;;12.91;100.00;97885.72;5112104;28;20199;-61
2024/01/24 08:47:07;;;;;;;0.85;0.70;;;;;;;12.94;99.52;97875.69;5111561;28;20193;-62
2024/01/24 08:49:33;;;;;;;1.30;0.98;;;;;;;12.93;100.00;97894.44;5119579;28;20633;-61
2024/01/24 08:52:00;;;;;;;0.85;0.77;;;;;;;13.00;99.79;97890.31;5124196;28;20272;-65
2024/01/24 08:54:27;;;;;;;1.95;0.93;;;;;;;13.03;100.00;97905.13;5124291;28;20209;-60
2024/01/24 08:56:53;;;;;;;1.40;0.65;;;;;;;13.06;98.92;97900.41;5113101;28;20276;-61
2024/01/24 08:59:21;;;;;;;0.63;0.63;;;;;;;13.17;99.19;97892.41;5111856;28;20258;-62
2024/01/24 09:01:48;;;;;;;2.13;0.73;;;;;;;13.07;99.16;97886.16;5110953;28;20219;-60
2024/01/24 09:04:15;;;;;;;1.38;0.80;;;;;;;13.19;98.78;97901.09;5114536;28;20236;-61
2024/01/24 09:06:42;;;;;;;0.98;0.75;;;;;;;13.27;98.08;97892.47;5114639;28;20508;-62
2024/01/24 09:09:10;;;;;;;3.47;1.35;;;;;;;13.26;98.98;97888.13;5113728;28;20303;-61
2024/01/24 09:11:37;;;;;;;0.75;0.68;;;;;;;13.29;99.82;97895.84;5115549;28;20201;-61
2024/01/24 09:14:03;;;;;;;1.85;0.73;;;;;;;13.25;99.33;97902.41;5124415;28;20205;-61
2024/01/24 09:16:33;;;;;;;0.95;0.50;;;;;;;13.27;99.70;97908.41;5125756;28;20200;-60
2024/01/24 09:19:01;;;;;;;1.15;0.70;;;;;;;13.29;99.38;97891.38;5115845;28;20201;-61
2024/01/24 09:21:28;;;;;;;2.53;0.93;;;;;;;13.39;97.99;97899.44;5114667;28;20215;-61
2024/01/24 09:23:56;;;;;;;1.58;0.90;;;;;;;13.47;97.76;97896.94;5113953;28;20221;-60
2024/01/24 09:26:22;;;;;;;1.13;0.52;;;;;;;13.42;97.76;97928.38;5114230;28;20549;-60
2024/01/24 09:28:49;;;;;;;3.38;0.80;;;;;;;13.48;96.78;97932.34;5114522;28;20221;-61
2024/01/24 09:31:15;;;;;;;1.17;0.75;;;;;;;13.52;96.46;97923.97;5114395;28;20189;-61
2024/01/24 09:33:43;;;;;;;1.90;0.98;;;;;;;13.51;96.92;97922.28;5116329;28;20205;-61
2024/01/24 09:36:10;;;;;;;1.48;0.57;;;;;;;13.55;96.84;97921.06;5115126;28;20534;-62
2024/01/24 09:38:37;;;;;;;1.38;0.80;;;;;;;13.53;96.65;97922.16;5114697;28;20197;-61
2024/01/24 09:41:06;;;;;;;1.13;0.43;;;;;;;13.50;97.46;97927.75;5113655;28;20625;-61
2024/01/24 09:43:33;;;;;;;0.60;0.60;;;;;;;13.52;97.07;97926.63;5113829;28;20201;-61
2024/01/24 09:46:01;;;;;;;1.17;0.57;;;;;;;13.52;98.01;97931.09;5113435;28;20219;-62
2024/01/24 09:48:28;;;;;;;0.93;0.75;;;;;;;13.44;98.05;97915.81;5113657;28;20777;-62
2024/01/24 09:50:56;;;;;;;0.82;0.63;;;;;;;13.35;99.80;97927.22;5113781;28;20630;-62
2024/01/24 09:53:25;;;;;;;0.55;0.55;;;;;;;13.40;99.13;97920.53;5114070;28;20206;-61
2024/01/24 09:55:52;;;;;;;1.85;1.05;;;;;;;13.37;100.00;97915.50;5113684;28;20208;-61
2024/01/24 09:58:19;;;;;;;2.10;0.70;;;;;;;13.30;100.00;97929.41;5113372;28;20205;-61
2024/01/24 10:00:47;;;;;;;1.08;0.75;;;;;;;13.30;100.00;97924.09;5113234;28;20240;-62
2024/01/24 10:03:14;;;;;;;1.10;0.68;;;;;;;13.16;100.00;97937.69;5112913;28;20212;-62
2024/01/24 10:05:42;;;;;;;1.52;0.88;;;;;;;13.17;100.00;97929.59;5114147;28;20193;-62
2024/01/24 10:08:10;;;;;;;1.98;1.00;;;;;;;13.19;100.00;97930.31;5113648;28;20673;-62
2024/01/24 10:10:37;;;;;;;1.90;0.77;;;;;;;13.20;100.00;97933.81;5113233;28;20208;-62
2024/01/24 10:13:04;;;;;;;1.38;0.70;;;;;;;13.15;100.00;97930.69;5112700;28;20689;-62
2024/01/24 10:15:31;;;;;;;0.63;0.63;;;;;;;13.33;99.61;97935.31;5112659;28;20261;-62
2024/01/24 10:17:57;;;;;;;0.70;0.70;;;;;;;13.34;99.39;97914.91;5113651;28;20201;-61
2024/01/24 10:20:24;;;;;;;1.65;0.52;;;;;;;13.33;99.46;97923.84;5113065;28;20284;-61
2024/01/24 10:22:52;;;;;;;1.27;1.00;;;;;;;13.30;100.00;97910.81;5113354;28;20211;-62
2024/01/24 10:25:20;;;;;;;1.85;0.68;;;;;;;13.24;100.00;97920.16;5115512;28;20197;-62
2024/01/24 10:27:46;;;;;;;1.05;0.70;;;;;;;13.27;100.00;97913.72;5116027;28;20296;-63
2024/01/24 10:30:15;;;;;;;0.73;0.60;;;;;;;13.29;100.00;97906.47;5116688;28;20197;-63
2024/01/24 10:32:43;;;;;;;1.08;0.70;;;;;;;13.28;100.00;97905.66;5117340;28;20208;-63
2024/01/24 10:35:10;;;;;;;1.10;0.57;;;;;;;13.39;100.00;97918.84;5113273;28;20205;-66
2024/01/24 10:37:37;;;;;;;0.52;0.52;;;;;;;13.35;100.00;97920.09;5113286;28;20205;-63
2024/01/24 10:40:06;;;;;;;1.90;0.70;;;;;;;13.38;99.87;97911.03;5112804;28;20688;-63
2024/01/24 10:42:39;;;;;;;1.38;0.80;;;;;;;13.51;98.71;97906.34;5113235;28;20221;-63
2024/01/24 10:45:06;;;;;;;1.15;0.52;;;;;;;13.56;99.08;97898.84;5113235;28;20284;-62
2024/01/24 10:47:34;;;;;;;0.52;0.50;;;;;;;13.58;100.00;97904.84;5113531;28;20204;-63
2024/01/24 10:50:04;;;;;;;1.23;0.70;;;;;;;13.48;100.00;97880.03;5113110;28;20221;-62
2024/01/24 10:52:30;;;;;;;1.13;0.65;;;;;;;13.55;100.00;97894.47;5112611;28;20328;-63
2024/01/24 10:55:01;;;;;;;1.75;0.60;;;;;;;13.47;100.00;97881.00;5112843;28;20201;-62
2024/01/24 10:57:29;;;;;;;0.63;0.63;;;;;;;13.56;100.00;97876.72;5112642;28;20548;-62
2024/01/24 10:59:57;;;;;;;0.57;0.57;;;;;;;13.50;100.00;97872.75;5113096;28;20225;-63
2024/01/24 11:02:23;;;;;;;0.52;0.52;;;;;;;13.51;100.00;97869.13;5121108;28;20288;-63
2024/01/24 11:04:50;;;;;;;0.85;0.68;;;;;;;13.54;100.00;97876.84;5129137;28;20240;-63
2024/01/24 11:07:23;;;;;;;0.60;0.55;;;;;;;13.62;100.00;97857.56;5120511;28;20664;-62
2024/01/24 11:09:56;;;;;;;1.20;0.80;;;;;;;13.69;100.00;97870.22;5115534;28;20227;-63
2024/01/24 11:12:23;;;;;;;3.03;0.80;;;;;;;13.66;100.00;97877.59;5112573;28;20295;-62
2024/01/24 11:14:51;;;;;;;1.27;0.80;;;;;;;13.69;99.80;97872.88;5113128;28;20261;-62
2024/01/24 11:17:21;;;;;;;0.40;0.40;;;;;;;13.64;100.00;97863.63;5112469;28;20220;-61
2024/01/24 11:19:49;;;;;;;0.75;0.50;;;;;;;13.66;100.00;97862.50;5112872;28;20198;-62
2024/01/24 11:22:24;;;;;;;2.28;0.70;;;;;;;13.66;100.00;97861.66;5112483;28;20213;-62
2024/01/24 11:24:52;;;;;;;0.80;0.80;;;;;;;13.65;100.00;97855.50;5111792;28;20216;-63
2024/01/24 11:27:26;;;;;;;1.25;0.68;;;;;;;13.70;99.29;97847.97;5112627;28;20288;-63
2024/01/24 11:29:53;;;;;;;1.20;0.50;;;;;;;13.63;99.83;97857.47;5112408;28;20732;-62
2024/01/24 11:32:55;;;;;;;1.42;0.70;;;;;;;13.60;100.00;97863.03;5117198;28;20288;-63